Time;durP1;ratioP1;P1;durP2;ratioP2;P2;SDS_P1;SDS_P2;PMS_P1;PMS_P2;Temp;Humidity;BMP_temperature;BMP_pressure;BME280_temperature;BME280_humidity;BME280_pressure;Samples;Min_cycle;Max_cycle;Signal;HPM_P1;HPM_P2
2022/10/30 00:00:25;;;;;;;;;27.80;25.00;;;;;17.88;70.63;99254.66;6109091;28;97277;-61
2022/10/30 00:03:28;;;;;;;;;29.00;26.80;;;;;17.84;70.91;99250.78;6107351;28;98145;-62
2022/10/30 00:06:31;;;;;;;;;33.00;28.60;;;;;17.78;70.71;99249.13;6121549;28;97175;-62
2022/10/30 00:09:37;;;;;;;;;32.60;27.60;;;;;17.72;70.95;99256.44;6124537;28;96320;-62
2022/10/30 00:12:40;;;;;;;;;34.50;29.00;;;;;17.69;70.88;99254.19;6113021;28;97487;-64
2022/10/30 00:15:47;;;;;;;;;31.00;28.20;;;;;17.69;70.49;99254.19;6113389;28;96367;-62
2022/10/30 00:18:50;;;;;;;;;32.50;29.75;;;;;17.69;70.57;99267.03;6104650;28;96349;-63
2022/10/30 00:21:53;;;;;;;;;32.00;27.60;;;;;17.66;70.97;99245.72;6112017;28;96516;-63
2022/10/30 00:24:58;;;;;;;;;28.00;26.00;;;;;17.58;71.36;99254.34;6112284;28;96532;-62
2022/10/30 00:28:01;;;;;;;;;32.60;28.00;;;;;17.48;72.01;99254.25;6112125;28;96619;-62
2022/10/30 00:31:05;;;;;;;;;33.00;29.60;;;;;17.47;72.34;99264.34;6110727;28;96968;-62
2022/10/30 00:34:09;;;;;;;;;31.00;29.40;;;;;17.39;72.77;99264.81;6093336;28;97210;-62
2022/10/30 00:37:13;;;;;;;;;34.40;28.60;;;;;17.32;73.21;99264.16;6110229;28;96388;-62
2022/10/30 00:40:18;;;;;;;;;34.80;30.00;;;;;17.36;72.91;99262.56;6112187;28;96950;-64
2022/10/30 00:43:34;;;;;;;;;30.75;26.75;;;;;17.33;73.08;99257.66;6111913;28;96285;-63
2022/10/30 00:46:40;;;;;;;;;32.50;30.00;;;;;17.29;73.47;99261.97;6094006;28;96678;-62
2022/10/30 00:49:51;;;;;;;;;33.50;30.00;;;;;17.23;74.13;99262.97;6093808;28;96248;-62
2022/10/30 00:53:00;;;;;;;;;33.00;30.00;;;;;17.24;74.35;99273.63;6110268;28;96378;-62
2022/10/30 00:56:08;;;;;;;;;32.75;30.00;;;;;17.22;74.89;99275.78;6111036;28;96278;-61
2022/10/30 00:59:16;;;;;;;;;32.00;30.00;;;;;17.15;75.29;99258.00;6109538;28;96247;-65
2022/10/30 01:02:21;;;;;;;;;33.00;31.00;;;;;17.05;75.37;99245.09;6097032;28;96374;-62
2022/10/30 01:05:27;;;;;;;;;33.60;31.00;;;;;17.16;75.63;99251.44;6106041;28;96346;-62
2022/10/30 01:08:31;;;;;;;;;35.00;31.00;;;;;17.20;75.47;99247.97;6092971;28;96296;-62
2022/10/30 01:11:36;;;;;;;;;29.80;29.20;;;;;17.14;75.76;99245.44;6108885;28;96841;-61
2022/10/30 01:14:44;;;;;;;;;34.00;30.00;;;;;17.06;75.31;99215.91;6092939;28;96440;-62
2022/10/30 01:18:21;;;;;;;;;31.60;27.00;;;;;17.08;75.89;99222.78;6108638;28;96839;-62
2022/10/30 01:21:43;;;;;;;;;34.40;31.00;;;;;17.11;75.77;99240.50;6093109;28;96234;-62
2022/10/30 01:25:00;;;;;;;;;30.40;27.40;;;;;17.09;76.22;99246.22;6093452;28;96785;-63
2022/10/30 01:28:20;;;;;;;;;28.80;26.40;;;;;17.18;76.14;99246.59;6107364;28;96483;-62
2022/10/30 01:31:40;;;;;;;;;27.00;26.00;;;;;17.22;76.06;99250.44;6106252;28;96403;-61
2022/10/30 01:34:49;;;;;;;;;31.00;27.50;;;;;17.27;75.70;99236.88;6106706;28;96337;-62
2022/10/30 01:38:00;;;;;;;;;31.00;29.00;;;;;17.21;76.28;99233.25;6093071;28;96138;-61
2022/10/30 01:41:04;;;;;;;;;28.00;27.00;;;;;17.25;75.43;99228.13;6092582;28;96946;-61
2022/10/30 01:44:16;;;;;;;;;30.40;27.00;;;;;17.12;76.30;99218.44;6108290;28;96518;-61
2022/10/30 01:47:31;;;;;;;;;33.00;28.50;;;;;17.15;75.92;99217.94;6112535;28;96864;-63
2022/10/30 01:50:40;;;;;;;;;28.75;27.50;;;;;17.15;75.79;99217.94;6094558;28;96746;-62
2022/10/30 01:53:53;;;;;;;;;28.75;27.75;;;;;17.08;76.38;99217.31;6093017;28;96400;-61
2022/10/30 01:57:05;;;;;;;;;34.40;30.00;;;;;17.06;76.21;99226.81;6110612;28;96470;-62
2022/10/30 02:00:15;;;;;;;;;30.60;28.20;;;;;17.04;76.26;99229.00;6106714;28;96297;-62
2022/10/30 02:03:23;;;;;;;;;31.50;29.00;;;;;17.04;76.32;99218.09;6109641;28;96245;-62
2022/10/30 02:06:27;;;;;;;;;34.25;30.25;;;;;17.09;75.96;99229.03;6109506;28;96889;-61
2022/10/30 02:09:31;;;;;;;;;30.67;28.00;;;;;17.06;76.04;99235.81;6093530;28;96321;-62
2022/10/30 02:12:35;;;;;;;;;29.80;28.20;;;;;17.04;76.31;99235.25;6109778;28;96384;-62
2022/10/30 02:15:41;;;;;;;;;29.80;27.00;;;;;17.05;76.21;99233.38;6110107;28;96384;-62
2022/10/30 02:18:45;;;;;;;;;31.75;28.00;;;;;17.03;76.42;99217.25;6109337;28;96321;-62
2022/10/30 02:21:51;;;;;;;;;31.60;28.80;;;;;17.10;75.51;99215.19;6091197;28;97446;-62
2022/10/30 02:24:54;;;;;;;;;32.20;27.00;;;;;17.05;75.54;99209.66;6092010;28;97774;-62
2022/10/30 02:27:59;;;;;;;;;30.60;29.00;;;;;16.90;75.67;99193.16;6076550;28;96831;-62
2022/10/30 02:31:06;;;;;;;;;28.00;25.00;;;;;17.03;75.57;99213.72;6091450;28;96278;-61
2022/10/30 02:34:09;;;;;;;;;30.00;28.50;;;;;17.01;75.73;99224.03;6091862;28;96995;-62
2022/10/30 02:37:14;;;;;;;;;28.00;26.75;;;;;16.98;76.23;99236.28;6076937;28;96903;-62
2022/10/30 02:40:18;;;;;;;;;30.00;29.00;;;;;16.97;76.05;99245.50;6095470;28;96267;-64
2022/10/30 02:43:21;;;;;;;;;32.40;29.00;;;;;17.00;75.81;99241.47;6092037;28;96306;-63
2022/10/30 02:46:25;;;;;;;;;30.00;27.80;;;;;17.01;75.59;99238.47;6075936;28;96696;-61
2022/10/30 02:49:28;;;;;;;;;31.00;28.00;;;;;17.02;75.55;99240.13;6090476;28;96390;-63
2022/10/30 02:52:33;;;;;;;;;31.00;28.75;;;;;17.00;75.45;99239.56;6093029;28;96343;-61
2022/10/30 02:55:36;;;;;;;;;33.80;29.40;;;;;16.87;76.22;99232.59;6093428;28;97150;-62
2022/10/30 02:58:40;;;;;;;;;28.50;26.50;;;;;16.82;76.21;99232.53;6092926;28;96248;-62
2022/10/30 03:01:44;;;;;;;;;31.50;27.00;;;;;16.78;76.32;99236.84;6090781;28;96624;-62
2022/10/30 03:04:48;;;;;;;;;34.00;30.00;;;;;16.77;76.31;99240.66;6091907;28;96744;-62
2022/10/30 03:07:54;;;;;;;;;34.60;30.00;;;;;16.66;77.11;99251.69;6092737;28;96306;-62
2022/10/30 03:11:02;;;;;;;;;35.40;29.20;;;;;16.66;77.07;99244.34;6099754;28;97574;-61
2022/10/30 03:14:05;;;;;;;;;32.00;29.25;;;;;16.65;77.02;99228.25;6107442;28;96905;-63
2022/10/30 03:17:09;;;;;;;;;33.20;30.00;;;;;16.54;76.97;99229.16;6096887;28;96361;-62
2022/10/30 03:20:12;;;;;;;;;31.80;28.00;;;;;16.40;76.78;99206.91;6098946;28;98342;-63
2022/10/30 03:23:17;;;;;;;;;34.67;32.00;;;;;16.37;77.40;99210.16;6108516;28;96298;-64
2022/10/30 03:26:21;;;;;;;;;33.00;30.00;;;;;16.29;77.65;99188.81;6091792;28;96296;-62
2022/10/30 03:29:31;;;;;;;;;30.60;28.00;;;;;16.22;78.11;99209.94;6091554;28;96327;-62
2022/10/30 03:32:37;;;;;;;;;32.00;30.00;;;;;16.22;78.42;99212.66;6092218;28;96834;-61
2022/10/30 03:35:40;;;;;;;;;36.00;31.00;;;;;16.17;79.25;99209.88;6092476;28;96382;-63
2022/10/30 03:38:45;;;;;;;;;36.25;30.00;;;;;16.05;80.35;99212.69;6091056;28;96633;-62
2022/10/30 03:41:53;;;;;;;;;33.40;30.00;;;;;16.00;80.49;99210.69;6090982;28;96959;-61
2022/10/30 03:44:56;;;;;;;;;31.00;29.00;;;;;16.03;80.72;99220.25;6109238;28;96258;-62
2022/10/30 03:48:00;;;;;;;;;31.40;26.00;;;;;16.08;80.54;99219.53;6090148;28;96282;-64
2022/10/30 03:51:04;;;;;;;;;31.00;27.00;;;;;15.99;80.61;99213.66;6103749;28;96805;-62
2022/10/30 03:54:10;;;;;;;;;26.75;25.00;;;;;16.04;80.69;99217.28;6092501;28;96365;-62
2022/10/30 03:57:14;;;;;;;;;33.40;30.40;;;;;16.02;80.68;99210.47;6090818;28;96547;-62
2022/10/30 04:00:44;;;;;;;;;29.60;26.60;;;;;16.03;80.91;99217.53;6106748;28;96239;-62
2022/10/30 04:03:48;;;;;;;;;29.00;28.60;;;;;16.08;80.55;99212.16;6089511;28;96449;-61
2022/10/30 04:06:51;;;;;;;;;30.80;28.60;;;;;16.02;81.37;99214.00;6091528;28;96279;-62
2022/10/30 04:09:57;;;;;;;;;32.40;30.00;;;;;16.01;81.52;99211.53;6089594;28;96401;-62
2022/10/30 04:13:04;;;;;;;;;37.40;32.00;;;;;16.00;81.70;99218.88;6090525;28;96256;-61
2022/10/30 04:16:09;;;;;;;;;30.40;29.00;;;;;15.98;81.56;99207.41;6092117;28;96257;-61
2022/10/30 04:19:13;;;;;;;;;29.00;28.40;;;;;15.95;81.68;99198.91;6090533;28;97379;-65
2022/10/30 04:22:16;;;;;;;;;32.40;29.40;;;;;15.93;81.86;99211.97;6091916;28;96249;-62
2022/10/30 04:25:21;;;;;;;;;33.00;30.00;;;;;15.96;81.81;99206.84;6093112;28;96407;-62
2022/10/30 04:28:25;;;;;;;;;34.25;30.25;;;;;16.02;81.49;99216.72;6094675;28;96432;-62
2022/10/30 04:31:29;;;;;;;;;34.00;29.00;;;;;15.97;81.48;99216.66;6076064;28;96847;-61
2022/10/30 04:34:32;;;;;;;;;30.60;28.00;;;;;15.99;81.32;99229.97;6108137;28;96367;-62
2022/10/30 04:37:36;;;;;;;;;36.60;31.60;;;;;15.95;81.33;99223.41;6089032;28;96405;-62
2022/10/30 04:40:43;;;;;;;;;30.00;28.00;;;;;15.77;81.90;99221.75;6085872;28;96544;-63
2022/10/30 04:43:48;;;;;;;;;33.00;30.00;;;;;15.78;82.28;99220.69;6108829;28;96799;-63
2022/10/30 04:46:53;;;;;;;;;35.75;31.00;;;;;15.80;81.90;99225.88;6115468;28;96296;-61
2022/10/30 04:49:56;;;;;;;;;31.40;29.60;;;;;15.64;82.62;99213.13;6089872;28;96267;-62
2022/10/30 04:53:01;;;;;;;;;38.00;32.60;;;;;15.50;82.70;99193.53;6092573;28;96332;-63
2022/10/30 04:56:07;;;;;;;;;37.00;32.00;;;;;15.53;83.16;99206.69;6094585;28;96239;-62
2022/10/30 04:59:11;;;;;;;;;34.67;30.00;;;;;15.49;83.39;99209.00;6079140;28;96650;-62
2022/10/30 05:02:14;;;;;;;;;34.60;30.00;;;;;15.57;82.69;99207.84;6094230;28;96229;-62
2022/10/30 05:05:18;;;;;;;;;30.80;27.00;;;;;15.59;82.46;99214.66;6113638;28;96261;-63
2022/10/30 05:08:23;;;;;;;;;32.40;30.00;;;;;15.64;82.04;99208.47;6077799;28;96680;-64
2022/10/30 05:11:28;;;;;;;;;31.00;29.50;;;;;15.67;81.37;99212.63;6092940;28;96363;-62
2022/10/30 05:14:32;;;;;;;;;36.00;31.00;;;;;15.64;81.08;99213.13;6105733;28;97750;-62
2022/10/30 05:17:36;;;;;;;;;30.80;27.40;;;;;15.67;81.00;99216.16;6095294;28;96449;-62
2022/10/30 05:20:39;;;;;;;;;30.40;29.00;;;;;15.66;80.91;99213.69;6111613;28;96364;-61
2022/10/30 05:23:45;;;;;;;;;30.80;27.60;;;;;15.66;80.56;99222.66;6096067;28;96437;-63
2022/10/30 05:26:50;;;;;;;;;28.50;26.25;;;;;15.57;80.53;99224.13;6095194;28;96806;-62
2022/10/30 05:29:54;;;;;;;;;34.00;31.00;;;;;15.64;79.86;99222.06;6094113;28;96719;-65
2022/10/30 05:33:00;;;;;;;;;29.75;27.00;;;;;15.56;79.97;99225.19;6110443;28;96335;-62
2022/10/30 05:36:05;;;;;;;;;31.40;29.40;;;;;15.47;79.81;99221.22;6093722;28;96276;-64
2022/10/30 05:39:09;;;;;;;;;35.00;30.00;;;;;15.44;79.76;99210.84;6088778;28;96234;-63
2022/10/30 05:42:17;;;;;;;;;32.80;29.20;;;;;15.32;80.29;99218.22;6092452;28;96395;-63
2022/10/30 05:45:21;;;;;;;;;36.00;30.00;;;;;15.38;80.20;99209.09;6082915;28;97879;-63
2022/10/30 05:48:24;;;;;;;;;33.00;30.00;;;;;15.45;79.92;99213.28;6095040;28;96363;-62
2022/10/30 05:51:30;;;;;;;;;32.80;29.20;;;;;15.51;79.30;99212.34;6093498;28;96160;-61
2022/10/30 05:54:40;;;;;;;;;32.00;29.00;;;;;15.56;78.79;99222.47;6091971;28;97197;-61
2022/10/30 05:57:58;;;;;;;;;32.00;29.00;;;;;15.67;78.25;99226.19;6086443;28;96310;-63
2022/10/30 06:01:05;;;;;;;;;30.00;27.00;;;;;15.89;77.50;99240.69;6082756;28;96519;-63
2022/10/30 06:04:16;;;;;;;;;31.75;29.25;;;;;16.07;76.28;99245.06;6095693;28;96408;-63
2022/10/30 06:07:19;;;;;;;;;33.20;30.00;;;;;16.11;75.95;99243.50;6088865;28;97103;-64
2022/10/30 06:10:23;;;;;;;;;33.25;29.25;;;;;16.22;74.82;99234.44;6086528;28;96532;-63
2022/10/30 06:13:48;;;;;;;;;29.25;28.00;;;;;16.71;72.99;99243.56;6110009;28;96518;-62
2022/10/30 06:16:56;;;;;;;;;31.40;30.00;;;;;17.85;68.67;99236.06;6107908;28;96618;-63
2022/10/30 06:19:59;;;;;;;;;30.50;29.00;;;;;18.64;64.39;99227.91;6108972;28;96585;-62
2022/10/30 06:23:22;;;;;;;;;31.40;28.40;;;;;19.24;60.13;99230.03;6091323;28;96719;-61
2022/10/30 06:26:35;;;;;;;;;31.40;29.00;;;;;20.18;56.88;99239.72;6077653;28;96329;-61
2022/10/30 06:29:45;;;;;;;;;28.00;26.00;;;;;20.28;55.13;99240.50;6078999;28;96341;-65
2022/10/30 06:32:49;;;;;;;;;27.00;24.25;;;;;20.57;54.33;99240.75;6078985;28;96478;-66
2022/10/30 06:35:52;;;;;;;;;26.00;24.00;;;;;21.43;52.43;99248.63;6086983;28;96868;-59
2022/10/30 06:38:56;;;;;;;;;27.00;24.80;;;;;22.31;49.07;99244.94;6086629;28;96363;-60
2022/10/30 06:42:01;;;;;;;;;25.00;24.00;;;;;22.96;46.62;99242.59;6085391;28;97048;-59
2022/10/30 06:45:22;;;;;;;;;27.40;26.40;;;;;23.72;43.58;99254.19;6086292;28;96609;-61
2022/10/30 06:48:26;;;;;;;;;30.00;26.00;;;;;24.40;41.61;99252.81;6097144;28;96268;-60
2022/10/30 06:51:31;;;;;;;;;26.80;24.80;;;;;25.17;39.68;99253.78;6085531;28;96329;-60
2022/10/30 06:54:35;;;;;;;;;26.00;23.40;;;;;25.91;38.54;99259.84;6086257;28;96401;-59
2022/10/30 06:58:05;;;;;;;;;24.00;22.40;;;;;26.66;37.13;99248.00;6086876;28;96915;-60
2022/10/30 07:01:28;;;;;;;;;24.20;21.20;;;;;27.50;35.39;99256.13;6102567;28;96707;-59
2022/10/30 07:04:52;;;;;;;;;25.20;23.20;;;;;28.36;33.45;99251.34;6100808;28;96350;-60
2022/10/30 07:07:58;;;;;;;;;26.40;24.00;;;;;29.04;32.06;99255.03;6064368;28;97401;-61
2022/10/30 07:11:02;;;;;;;;;25.40;23.00;;;;;29.86;31.00;99253.50;6076474;28;96340;-60
2022/10/30 07:14:24;;;;;;;;;24.50;23.00;;;;;30.71;29.54;99251.06;6078859;28;96320;-61
2022/10/30 07:17:54;;;;;;;;;22.25;21.25;;;;;31.23;28.85;99259.56;6078157;28;96267;-61
2022/10/30 07:20:59;;;;;;;;;24.00;23.00;;;;;31.91;27.78;99250.50;6086234;28;97129;-60
2022/10/30 07:24:05;;;;;;;;;25.80;24.00;;;;;32.55;27.09;99253.91;6079320;28;97120;-60
2022/10/30 07:27:10;;;;;;;;;22.50;21.50;;;;;32.92;26.13;99246.13;6080941;28;97380;-61
2022/10/30 07:30:26;;;;;;;;;20.00;19.00;;;;;31.82;27.57;99245.06;6077019;28;98174;-61
2022/10/30 07:33:46;;;;;;;;;21.80;20.00;;;;;29.57;30.17;99253.56;6079652;28;97632;-63
2022/10/30 07:37:15;;;;;;;;;22.80;20.20;;;;;27.38;33.06;99242.88;6087500;28;96858;-63
2022/10/30 07:40:25;;;;;;;;;22.40;21.40;;;;;27.36;34.01;99247.09;6087830;28;96524;-60
2022/10/30 07:43:42;;;;;;;;;24.40;22.00;;;;;28.63;32.55;99254.88;6077446;28;97690;-60
2022/10/30 07:47:17;;;;;;;;;20.00;20.00;;;;;29.26;30.68;99256.72;6078178;28;96317;-60
2022/10/30 07:50:57;;;;;;;;;22.60;19.60;;;;;30.30;30.16;99271.44;6012190;28;96302;-60
2022/10/30 07:54:02;;;;;;;;;21.25;21.00;;;;;31.69;28.02;99277.75;6080667;28;96388;-61
2022/10/30 07:57:08;;;;;;;;;21.00;19.40;;;;;32.63;26.66;99260.53;6082990;28;96346;-60
2022/10/30 08:00:32;;;;;;;;;21.60;19.60;;;;;34.00;24.98;99261.41;6068129;28;97224;-60
2022/10/30 08:03:48;;;;;;;;;17.20;17.20;;;;;35.02;23.63;99266.19;6074875;28;96328;-61
2022/10/30 08:07:03;;;;;;;;;23.00;19.40;;;;;35.97;22.82;99260.44;6081727;28;96361;-61
2022/10/30 08:10:08;;;;;;;;;19.00;17.00;;;;;36.38;21.80;99250.91;6064959;28;97040;-60
2022/10/30 08:13:13;;;;;;;;;23.40;20.00;;;;;36.34;21.47;99252.06;6082372;28;96246;-61
2022/10/30 08:16:17;;;;;;;;;18.25;18.00;;;;;36.19;21.61;99258.69;6083708;28;96439;-61
2022/10/30 08:19:20;;;;;;;;;21.50;19.00;;;;;36.01;22.38;99264.88;6082032;28;96280;-61
2022/10/30 08:22:25;;;;;;;;;17.00;16.00;;;;;36.27;22.16;99257.56;6082132;28;97258;-61
2022/10/30 08:25:34;;;;;;;;;19.00;18.40;;;;;36.68;21.70;99253.63;6083399;28;96371;-60
2022/10/30 08:28:38;;;;;;;;;18.20;17.00;;;;;36.70;21.17;99247.63;6084976;28;96244;-61
2022/10/30 08:31:47;;;;;;;;;19.00;17.00;;;;;36.79;21.58;99248.13;6079977;28;96354;-61
2022/10/30 08:34:57;;;;;;;;;20.00;19.40;;;;;37.09;21.06;99246.00;6091331;28;96346;-61
2022/10/30 08:38:02;;;;;;;;;17.00;16.00;;;;;37.29;20.92;99238.06;6086616;28;96739;-61
2022/10/30 08:41:07;;;;;;;;;17.25;17.00;;;;;37.63;20.33;99233.09;6086304;28;96268;-61
2022/10/30 08:44:16;;;;;;;;;15.50;15.00;;;;;38.07;19.90;99232.91;6085721;28;96461;-61
2022/10/30 08:47:38;;;;;;;;;16.00;14.00;;;;;38.52;19.58;99229.41;6102279;28;96281;-61
2022/10/30 08:50:43;;;;;;;;;15.00;14.00;;;;;38.69;19.03;99233.47;6085289;28;96385;-61
2022/10/30 08:53:51;;;;;;;;;14.00;13.00;;;;;38.65;19.42;99232.66;6084436;28;96357;-61
2022/10/30 08:56:55;;;;;;;;;15.00;14.00;;;;;38.56;19.92;99229.44;6084385;28;96190;-61
2022/10/30 08:59:59;;;;;;;;;14.40;14.00;;;;;38.56;19.24;99224.59;6099195;28;96311;-61
2022/10/30 09:03:38;;;;;;;;;17.00;15.00;;;;;37.21;20.27;99220.34;6036120;28;97841;-62
2022/10/30 09:07:00;;;;;;;;;15.60;15.60;;;;;35.89;22.09;99219.41;6080045;28;96639;-61
2022/10/30 09:10:25;;;;;;;;;17.00;16.00;;;;;34.39;23.36;99217.44;6099151;28;97114;-61
2022/10/30 09:13:29;;;;;;;;;15.40;14.00;;;;;33.37;24.84;99202.91;6076619;28;96998;-61
2022/10/30 09:16:33;;;;;;;;;16.00;15.60;;;;;32.81;25.76;99202.34;6081812;28;97569;-61
2022/10/30 09:19:38;;;;;;;;;14.00;13.00;;;;;32.32;26.42;99197.09;6090454;28;96302;-63
2022/10/30 09:22:42;;;;;;;;;16.00;15.60;;;;;31.72;27.11;99190.63;6068277;28;96894;-62
2022/10/30 09:25:47;;;;;;;;;16.20;15.00;;;;;31.30;27.68;99189.34;6081512;28;96654;-61
2022/10/30 09:28:59;;;;;;;;;17.00;16.00;;;;;31.30;27.81;99190.16;6082286;28;96222;-61
2022/10/30 09:32:32;;;;;;;;;15.00;15.00;;;;;31.71;27.49;99194.59;6079760;28;96585;-60
2022/10/30 09:35:43;;;;;;;;;15.40;14.40;;;;;32.64;26.84;99187.63;6082940;28;96240;-61
2022/10/30 09:38:46;;;;;;;;;15.00;13.00;;;;;33.90;25.36;99188.09;6083222;28;96566;-61
2022/10/30 09:42:09;;;;;;;;;14.60;14.00;;;;;35.37;23.63;99195.06;6082044;28;96306;-61
2022/10/30 09:45:46;;;;;;;;;11.60;11.00;;;;;37.01;22.24;99190.88;6069177;28;96516;-61
2022/10/30 09:49:05;;;;;;;;;13.60;12.20;;;;;38.29;20.31;99191.53;6079242;28;96720;-63
2022/10/30 09:52:21;;;;;;;;;13.75;12.00;;;;;39.10;19.55;99194.41;6062699;28;97299;-62
2022/10/30 09:55:42;;;;;;;;;11.40;10.40;;;;;39.65;19.21;99197.50;6075102;28;96226;-62
2022/10/30 09:58:59;;;;;;;;;13.80;13.00;;;;;39.79;19.05;99199.50;6070606;28;96122;-62
2022/10/30 10:02:21;;;;;;;;;10.25;10.00;;;;;39.58;19.07;99202.41;6100965;28;96716;-62
2022/10/30 10:05:29;;;;;;;;;13.00;12.60;;;;;39.57;19.17;99200.78;6093474;28;96956;-62
2022/10/30 10:09:16;;;;;;;;;11.00;11.00;;;;;39.09;19.03;99201.28;6020984;28;96343;-62
2022/10/30 10:12:38;;;;;;;;;11.00;10.00;;;;;38.38;19.90;99195.56;6084944;28;96805;-62
2022/10/30 10:15:49;;;;;;;;;12.50;10.00;;;;;37.84;20.72;99190.16;6097446;28;96284;-63
2022/10/30 10:19:00;;;;;;;;;13.00;11.60;;;;;37.62;21.05;99186.47;6095338;28;96572;-61
2022/10/30 10:22:13;;;;;;;;;12.00;10.75;;;;;37.76;20.71;99188.53;6094861;28;96314;-61
2022/10/30 10:25:19;;;;;;;;;12.00;11.00;;;;;38.04;20.51;99166.94;6095674;28;96518;-61
2022/10/30 10:28:44;;;;;;;;;11.00;11.00;;;;;38.70;19.96;99177.91;6095436;28;96327;-63
2022/10/30 10:32:02;;;;;;;;;14.00;12.00;;;;;39.19;19.44;99186.34;6079871;28;97568;-62
2022/10/30 10:35:27;;;;;;;;;10.50;10.00;;;;;39.80;19.61;99179.34;6099296;28;97578;-61
2022/10/30 10:38:44;;;;;;;;;12.00;10.00;;;;;39.88;18.77;99173.66;6099427;28;96830;-61
2022/10/30 10:41:57;;;;;;;;;11.40;10.60;;;;;40.16;18.58;99167.84;6098435;28;96515;-62
2022/10/30 10:45:17;;;;;;;;;11.00;10.00;;;;;39.95;18.58;99168.78;6099245;28;96262;-61
2022/10/30 10:48:48;;;;;;;;;13.00;11.20;;;;;39.44;18.91;99169.38;6097359;28;96382;-61
2022/10/30 10:51:56;;;;;;;;;11.00;10.00;;;;;39.42;19.29;99178.25;6097277;28;96698;-62
2022/10/30 10:55:04;;;;;;;;;10.00;9.60;;;;;39.41;19.00;99173.00;6098250;28;96427;-60
2022/10/30 10:58:19;;;;;;;;;10.50;10.00;;;;;39.38;19.17;99174.66;6097958;28;96302;-60
2022/10/30 11:01:29;;;;;;;;;10.00;9.00;;;;;39.11;19.00;99175.47;6098129;28;96441;-61
2022/10/30 11:04:39;;;;;;;;;11.80;10.00;;;;;38.64;19.38;99171.06;6097891;28;96915;-61
2022/10/30 11:07:47;;;;;;;;;9.25;8.75;;;;;38.57;19.63;99169.84;6097818;28;96281;-60
2022/10/30 11:10:57;;;;;;;;;11.00;9.00;;;;;38.97;19.52;99170.66;6097798;28;96848;-60
2022/10/30 11:14:01;;;;;;;;;11.00;10.00;;;;;39.46;18.64;99172.59;6085252;28;96262;-61
2022/10/30 11:17:15;;;;;;;;;8.40;8.40;;;;;39.77;18.59;99170.91;6098232;28;96319;-61
2022/10/30 11:20:28;;;;;;;;;7.20;7.20;;;;;39.63;18.51;99165.28;6098148;28;96228;-62
2022/10/30 11:23:40;;;;;;;;;11.00;10.00;;;;;38.80;19.06;99158.19;6098280;28;96301;-61
2022/10/30 11:26:43;;;;;;;;;11.75;11.00;;;;;37.83;19.84;99154.81;6097871;28;96288;-61
2022/10/30 11:29:51;;;;;;;;;11.00;9.60;;;;;36.91;21.19;99160.69;6097102;28;96855;-62
2022/10/30 11:32:55;;;;;;;;;11.80;10.40;;;;;36.14;21.46;99149.56;6097350;28;96780;-61
2022/10/30 11:36:09;;;;;;;;;11.00;10.00;;;;;35.21;22.75;99153.19;6096026;28;96719;-61
2022/10/30 11:39:20;;;;;;;;;11.20;10.60;;;;;34.44;23.66;99161.13;6090700;28;96275;-61
2022/10/30 11:42:23;;;;;;;;;12.20;9.80;;;;;33.74;25.00;99161.38;6095678;28;96279;-60
2022/10/30 11:45:28;;;;;;;;;12.80;11.20;;;;;33.34;25.29;99159.72;6098550;28;96321;-60
2022/10/30 11:48:34;;;;;;;;;10.00;10.00;;;;;33.13;25.41;99167.63;6097700;28;96393;-60
2022/10/30 11:51:43;;;;;;;;;14.60;12.60;;;;;33.07;25.91;99163.50;6094863;28;96101;-61
2022/10/30 11:54:50;;;;;;;;;11.00;10.40;;;;;33.06;25.98;99167.44;6079201;28;97030;-61
2022/10/30 11:57:57;;;;;;;;;12.00;11.00;;;;;33.05;25.95;99163.84;6097503;28;97227;-60
2022/10/30 12:01:04;;;;;;;;;13.00;11.75;;;;;33.47;25.99;99169.63;6100039;28;96953;-60
2022/10/30 12:04:16;;;;;;;;;11.40;11.40;;;;;33.72;25.62;99158.16;6099056;28;96300;-61
2022/10/30 12:07:28;;;;;;;;;14.00;12.00;;;;;34.10;25.36;99158.13;6100533;28;96422;-64
2022/10/30 12:10:31;;;;;;;;;12.00;12.00;;;;;34.30;24.96;99150.50;6099995;28;96503;-60
2022/10/30 12:13:39;;;;;;;;;12.00;11.00;;;;;34.61;24.41;99157.81;6100196;28;96346;-60
2022/10/30 12:16:46;;;;;;;;;10.60;10.20;;;;;34.35;24.57;99155.78;6099567;28;96892;-61
2022/10/30 12:19:52;;;;;;;;;12.00;11.00;;;;;33.78;25.17;99123.91;6099811;28;96254;-60
2022/10/30 12:22:58;;;;;;;;;12.00;11.00;;;;;33.04;26.24;99133.47;6082357;28;96430;-60
2022/10/30 12:26:08;;;;;;;;;11.50;11.00;;;;;32.43;27.01;99144.34;6100407;28;96342;-61
2022/10/30 12:29:16;;;;;;;;;11.00;11.00;;;;;31.98;27.88;99139.97;6100672;28;96559;-60
2022/10/30 12:32:24;;;;;;;;;13.00;12.00;;;;;31.50;28.42;99135.41;6083417;28;96323;-60
2022/10/30 12:35:38;;;;;;;;;12.00;11.40;;;;;31.13;28.85;99129.13;6100539;28;96547;-60
2022/10/30 12:38:47;;;;;;;;;12.00;11.50;;;;;31.02;29.37;99128.00;6101449;28;96246;-61
2022/10/30 12:42:00;;;;;;;;;12.00;11.00;;;;;30.96;29.29;99129.38;6101309;28;96474;-60
2022/10/30 12:45:12;;;;;;;;;12.00;10.80;;;;;30.70;29.98;99131.72;6101305;28;96367;-60
2022/10/30 12:48:23;;;;;;;;;10.00;9.25;;;;;30.35;30.04;99131.34;6101578;28;96219;-60
2022/10/30 12:51:35;;;;;;;;;12.00;11.40;;;;;30.01;30.42;99127.78;6101739;28;96945;-60
2022/10/30 12:54:50;;;;;;;;;13.00;12.40;;;;;29.78;31.45;99125.75;6101370;28;96885;-61
2022/10/30 12:58:09;;;;;;;;;11.00;10.60;;;;;29.69;31.78;99128.63;6101091;28;96275;-62
2022/10/30 13:01:23;;;;;;;;;13.00;10.00;;;;;29.86;31.92;99122.06;6100612;28;96346;-60
2022/10/30 13:04:33;;;;;;;;;12.40;12.40;;;;;30.28;31.39;99119.97;6100227;28;96268;-60
2022/10/30 13:07:42;;;;;;;;;13.40;12.00;;;;;30.60;30.98;99112.69;6100830;28;96245;-61
2022/10/30 13:10:52;;;;;;;;;13.00;11.00;;;;;31.02;30.06;99110.47;6100592;28;96367;-60
2022/10/30 13:13:57;;;;;;;;;11.60;11.00;;;;;31.32;29.49;99104.25;6100644;28;96207;-60
2022/10/30 13:17:01;;;;;;;;;12.50;10.50;;;;;31.48;29.97;99107.06;6100596;28;96341;-60
2022/10/30 13:20:11;;;;;;;;;12.60;10.80;;;;;31.69;29.22;99116.06;6100256;28;96408;-60
2022/10/30 13:23:22;;;;;;;;;12.67;10.00;;;;;31.83;28.90;99107.28;6100876;28;96504;-61
2022/10/30 13:26:41;;;;;;;;;12.00;12.00;;;;;31.97;28.78;99102.09;6101307;28;96933;-60
2022/10/30 13:29:53;;;;;;;;;11.00;10.40;;;;;32.10;28.93;99100.88;6101813;28;96427;-61
2022/10/30 13:33:08;;;;;;;;;13.00;11.00;;;;;31.94;28.36;99094.44;6101058;28;97704;-61
2022/10/30 13:36:19;;;;;;;;;11.60;10.80;;;;;31.49;29.38;99091.97;6098196;28;96519;-61
2022/10/30 13:39:31;;;;;;;;;11.00;10.00;;;;;31.26;29.70;99096.50;6101329;28;97050;-61
2022/10/30 13:42:48;;;;;;;;;10.00;9.20;;;;;31.20;29.68;99090.34;6100023;28;96564;-61
2022/10/30 13:46:09;;;;;;;;;13.00;11.80;;;;;31.17;30.07;99096.63;6101246;28;96341;-61
2022/10/30 13:49:28;;;;;;;;;10.60;10.00;;;;;31.12;30.05;99098.84;6100262;28;96312;-60
2022/10/30 13:52:38;;;;;;;;;12.75;12.75;;;;;31.16;29.89;99092.22;6100085;28;96245;-61
2022/10/30 13:55:43;;;;;;;;;13.00;12.00;;;;;31.19;29.67;99099.88;6101114;28;96320;-60
2022/10/30 13:58:58;;;;;;;;;9.60;9.60;;;;;31.07;30.51;99096.31;6101289;28;96223;-60
2022/10/30 14:02:14;;;;;;;;;13.00;11.00;;;;;31.12;30.21;99093.28;6101261;28;96497;-62
2022/10/30 14:05:28;;;;;;;;;10.60;10.40;;;;;31.07;30.20;99091.56;6100717;28;96881;-61
2022/10/30 14:08:38;;;;;;;;;10.00;9.80;;;;;30.98;29.85;99088.88;6101548;28;96294;-60
2022/10/30 14:11:42;;;;;;;;;11.00;9.00;;;;;30.79;30.66;99094.22;6100037;28;96359;-61
2022/10/30 14:14:48;;;;;;;;;12.80;10.80;;;;;30.62;30.59;99088.94;6100158;28;96788;-61
2022/10/30 14:18:24;;;;;;;;;12.00;10.00;;;;;30.39;31.32;99093.31;6100172;28;96941;-62
2022/10/30 14:21:52;;;;;;;;;10.60;10.00;;;;;30.02;31.32;99082.16;6099040;28;96386;-61
2022/10/30 14:24:56;;;;;;;;;11.60;10.60;;;;;29.64;32.26;99092.69;6082908;28;96424;-61
2022/10/30 14:27:59;;;;;;;;;12.25;11.00;;;;;29.26;33.00;99090.91;6098776;28;96513;-61
2022/10/30 14:31:08;;;;;;;;;10.40;9.40;;;;;28.92;33.44;99093.97;6099429;28;96367;-60